Time;durP1;ratioP1;P1;durP2;ratioP2;P2;SDS_P1;SDS_P2;PMS_P1;PMS_P2;Temp;Humidity;BMP_temperature;BMP_pressure;BME280_temperature;BME280_humidity;BME280_pressure;Samples;Min_cycle;Max_cycle;Signal;HPM_P1;HPM_P2
2023/04/16 00:01:04;;;;;;;3.83;0.77;;;17.70;1.00;;;;;;4991980;28;20057;-36
2023/04/16 00:03:32;;;;;;;1.50;0.80;;;17.70;1.00;;;;;;4990742;28;20042;-35
2023/04/16 00:05:59;;;;;;;7.82;1.13;;;17.70;1.00;;;;;;4984015;28;20105;-35
2023/04/16 00:08:26;;;;;;;3.08;0.65;;;17.70;1.00;;;;;;4984403;28;20375;-35
2023/04/16 00:10:53;;;;;;;4.13;0.98;;;17.70;1.00;;;;;;4986434;28;20038;-36
2023/04/16 00:13:20;;;;;;;4.10;0.90;;;17.60;1.00;;;;;;4987004;28;20391;-36
2023/04/16 00:15:46;;;;;;;7.50;1.25;;;17.70;1.00;;;;;;4995620;28;20038;-35
2023/04/16 00:18:13;;;;;;;3.28;1.10;;;17.70;1.00;;;;;;4995784;28;20070;-35
2023/04/16 00:20:40;;;;;;;5.07;1.27;;;17.70;1.00;;;;;;4995789;28;20046;-35
2023/04/16 00:23:07;;;;;;;3.35;1.13;;;17.70;1.00;;;;;;4995044;28;20521;-35
2023/04/16 00:25:33;;;;;;;5.28;0.98;;;17.70;1.00;;;;;;4995644;28;20042;-35
2023/04/16 00:28:00;;;;;;;3.63;1.02;;;17.60;1.00;;;;;;4995821;28;20045;-35
2023/04/16 00:30:27;;;;;;;3.83;1.35;;;17.60;1.00;;;;;;4978112;28;20100;-35
2023/04/16 00:32:53;;;;;;;4.10;0.82;;;17.60;1.00;;;;;;4994791;28;20042;-35
2023/04/16 00:35:20;;;;;;;3.13;1.30;;;17.60;1.00;;;;;;4977869;28;20046;-35
2023/04/16 00:37:47;;;;;;;5.43;1.08;;;17.60;1.00;;;;;;4978022;28;20043;-35
2023/04/16 00:40:14;;;;;;;2.92;0.70;;;17.60;1.00;;;;;;4977973;28;20073;-35
2023/04/16 00:42:41;;;;;;;1.92;0.85;;;17.60;1.00;;;;;;4994648;28;20383;-35
2023/04/16 00:45:08;;;;;;;3.72;0.93;;;17.50;1.00;;;;;;4995289;28;20561;-35
2023/04/16 00:47:35;;;;;;;3.35;0.85;;;17.50;1.00;;;;;;4995659;28;20149;-35
2023/04/16 00:50:03;;;;;;;3.65;0.82;;;17.50;1.00;;;;;;4995304;28;20455;-35
2023/04/16 00:52:34;;;;;;;1.65;0.68;;;17.60;1.00;;;;;;4994822;28;20046;-36
2023/04/16 00:55:01;;;;;;;4.15;0.82;;;17.50;1.00;;;;;;4977382;28;20074;-35
2023/04/16 00:57:29;;;;;;;3.90;0.90;;;17.50;1.00;;;;;;4994979;28;20085;-36
2023/04/16 00:59:57;;;;;;;5.28;1.15;;;17.60;1.00;;;;;;4977590;28;20141;-35
2023/04/16 01:02:24;;;;;;;3.70;1.05;;;17.50;1.00;;;;;;4994690;28;20130;-35
2023/04/16 01:04:51;;;;;;;2.95;1.08;;;17.50;1.00;;;;;;4977069;28;20509;-35
2023/04/16 01:07:18;;;;;;;3.60;0.73;;;17.50;1.00;;;;;;4994941;28;20042;-35
2023/04/16 01:09:45;;;;;;;2.20;0.70;;;17.50;1.00;;;;;;4977240;28;20082;-35
2023/04/16 01:12:12;;;;;;;3.15;0.85;;;17.50;1.00;;;;;;4994745;28;20046;-35
2023/04/16 01:14:39;;;;;;;1.58;1.05;;;17.50;1.00;;;;;;4994345;28;20045;-35
2023/04/16 01:17:06;;;;;;;7.88;1.40;;;17.50;1.00;;;;;;4977234;28;20059;-35
2023/04/16 01:19:35;;;;;;;4.05;0.63;;;17.50;1.00;;;;;;4994749;28;20494;-35
2023/04/16 01:22:03;;;;;;;6.03;1.10;;;17.50;1.00;;;;;;4977079;28;20057;-36
2023/04/16 01:24:30;;;;;;;5.47;0.75;;;17.40;1.00;;;;;;4993718;28;20042;-36
2023/04/16 01:26:58;;;;;;;1.65;0.70;;;17.40;1.00;;;;;;4977167;28;20133;-36
2023/04/16 01:29:25;;;;;;;2.92;0.80;;;17.40;1.00;;;;;;4994404;28;20133;-36
2023/04/16 01:31:55;;;;;;;4.95;0.88;;;17.40;1.00;;;;;;4977026;28;20042;-35
2023/04/16 01:34:29;;;;;;;4.85;0.88;;;17.40;1.00;;;;;;4976007;28;20058;-35
2023/04/16 01:36:57;;;;;;;2.97;0.50;;;17.40;1.00;;;;;;4976829;28;20097;-36
2023/04/16 01:39:23;;;;;;;4.63;1.13;;;17.40;1.00;;;;;;4994274;28;20513;-36
2023/04/16 01:41:50;;;;;;;2.58;0.75;;;17.40;1.00;;;;;;4976863;28;20050;-36
2023/04/16 01:44:17;;;;;;;2.00;0.70;;;17.40;1.00;;;;;;4993417;28;20490;-36
2023/04/16 01:46:45;;;;;;;5.72;0.80;;;17.40;1.00;;;;;;4976798;28;20433;-36
2023/04/16 01:49:12;;;;;;;8.10;1.20;;;17.40;1.00;;;;;;4976678;28;20082;-36
2023/04/16 01:51:38;;;;;;;2.38;0.70;;;17.40;1.00;;;;;;4976519;28;20081;-36
2023/04/16 01:54:05;;;;;;;1.65;0.98;;;17.40;1.00;;;;;;4993285;28;20046;-35
2023/04/16 01:56:32;;;;;;;1.92;0.80;;;17.40;1.00;;;;;;4976573;28;20062;-35
2023/04/16 01:58:59;;;;;;;4.15;1.55;;;17.40;1.00;;;;;;4976451;28;20042;-35
2023/04/16 02:01:32;;;;;;;5.95;0.95;;;17.40;1.00;;;;;;4976527;28;20043;-36
2023/04/16 02:03:59;;;;;;;5.32;0.68;;;17.30;1.00;;;;;;4975446;28;20185;-36
2023/04/16 02:06:26;;;;;;;2.17;1.23;;;17.30;1.00;;;;;;4976433;28;20054;-35
2023/04/16 02:08:53;;;;;;;4.97;0.93;;;17.40;1.00;;;;;;4976349;28;20323;-35
2023/04/16 02:11:20;;;;;;;2.55;0.70;;;17.30;1.00;;;;;;4993840;28;20063;-36
2023/04/16 02:13:48;;;;;;;0.93;0.70;;;17.30;1.00;;;;;;4975390;28;20057;-36
2023/04/16 02:16:16;;;;;;;4.18;1.48;;;17.30;1.00;;;;;;4976138;28;20054;-36
2023/04/16 02:18:58;;;;;;;3.22;1.55;;;17.30;1.00;;;;;;4976190;28;20050;-35
2023/04/16 02:21:28;;;;;;;6.00;1.23;;;17.30;1.00;;;;;;4976262;28;20069;-36
2023/04/16 02:23:56;;;;;;;3.97;0.90;;;17.30;1.00;;;;;;4975223;28;20050;-35
2023/04/16 02:26:28;;;;;;;3.83;0.80;;;17.30;1.00;;;;;;4976040;28;20054;-35
2023/04/16 02:28:58;;;;;;;2.97;1.08;;;17.30;1.00;;;;;;4975664;28;20428;-36
2023/04/16 02:31:33;;;;;;;3.67;0.93;;;17.30;1.00;;;;;;4976001;28;20074;-35
2023/04/16 02:34:00;;;;;;;3.78;1.25;;;17.30;1.00;;;;;;4991889;28;20073;-35
2023/04/16 02:36:27;;;;;;;3.78;0.85;;;17.30;1.00;;;;;;4993341;28;20574;-35
2023/04/16 02:38:54;;;;;;;5.00;0.73;;;17.30;1.00;;;;;;4975790;28;20495;-36
2023/04/16 02:41:21;;;;;;;6.82;1.20;;;17.30;1.00;;;;;;4975686;28;20046;-35
2023/04/16 02:43:48;;;;;;;2.75;1.20;;;17.30;1.00;;;;;;4992364;28;20042;-35
2023/04/16 02:46:15;;;;;;;3.30;1.10;;;17.30;1.00;;;;;;4993140;28;20353;-36
2023/04/16 02:48:42;;;;;;;4.28;1.02;;;17.20;1.00;;;;;;4975502;28;20042;-35
2023/04/16 02:51:09;;;;;;;6.38;1.27;;;17.20;1.00;;;;;;4975639;28;20042;-35
2023/04/16 02:53:35;;;;;;;4.28;1.15;;;17.20;1.00;;;;;;4992167;28;20038;-36
2023/04/16 02:56:02;;;;;;;3.40;1.08;;;17.20;1.00;;;;;;4975408;28;20557;-36
2023/04/16 02:58:29;;;;;;;5.95;1.88;;;17.20;1.00;;;;;;4975567;28;20046;-36
2023/04/16 03:00:56;;;;;;;3.80;1.27;;;17.20;1.00;;;;;;4975089;28;20111;-35
2023/04/16 03:03:23;;;;;;;3.55;1.30;;;17.20;1.00;;;;;;4974697;28;20079;-36
2023/04/16 03:05:50;;;;;;;5.05;0.90;;;17.20;1.00;;;;;;4975324;28;20096;-36
2023/04/16 03:08:17;;;;;;;4.07;1.52;;;17.20;1.00;;;;;;4993024;28;20414;-35
2023/04/16 03:10:44;;;;;;;3.03;1.15;;;17.20;1.00;;;;;;4992568;28;20047;-36
2023/04/16 03:13:11;;;;;;;4.55;1.00;;;17.20;1.00;;;;;;4974517;28;20545;-36
2023/04/16 03:15:37;;;;;;;6.55;1.63;;;17.20;1.00;;;;;;4992527;28;20462;-35
2023/04/16 03:18:05;;;;;;;5.80;1.60;;;17.20;1.00;;;;;;4975164;28;20038;-35
2023/04/16 03:20:32;;;;;;;4.53;2.40;;;17.10;1.00;;;;;;4975263;28;20045;-35
2023/04/16 03:22:58;;;;;;;5.32;1.65;;;17.20;1.00;;;;;;4991936;28;20521;-36
2023/04/16 03:25:25;;;;;;;7.57;1.88;;;17.20;1.00;;;;;;4992531;28;20050;-35
2023/04/16 03:27:52;;;;;;;11.55;1.70;;;17.20;1.00;;;;;;4992594;28;20053;-35
2023/04/16 03:30:18;;;;;;;6.15;1.60;;;17.10;1.00;;;;;;4974991;28;20042;-35
2023/04/16 03:32:46;;;;;;;3.92;1.55;;;17.10;1.00;;;;;;4991748;28;20041;-36
2023/04/16 03:35:12;;;;;;;5.32;1.40;;;17.10;1.00;;;;;;4974848;28;20039;-35
2023/04/16 03:37:40;;;;;;;4.80;1.60;;;17.10;1.00;;;;;;4975098;28;20044;-35
2023/04/16 03:40:07;;;;;;;4.38;1.23;;;17.10;1.00;;;;;;4974941;28;20137;-36
2023/04/16 03:42:34;;;;;;;4.45;1.60;;;17.10;1.00;;;;;;4992176;28;20514;-35
2023/04/16 03:45:01;;;;;;;3.03;1.20;;;17.10;1.00;;;;;;4993431;28;20097;-36
2023/04/16 03:47:30;;;;;;;4.45;1.80;;;17.10;1.00;;;;;;4978943;28;20042;-36
2023/04/16 03:50:00;;;;;;;5.25;1.55;;;17.00;1.00;;;;;;4978817;28;20034;-36
2023/04/16 03:52:27;;;;;;;5.35;1.45;;;17.10;1.00;;;;;;4978362;28;20042;-36
2023/04/16 03:54:55;;;;;;;3.97;1.58;;;17.10;1.00;;;;;;4978339;28;20425;-35
2023/04/16 03:57:27;;;;;;;5.03;1.60;;;17.10;1.00;;;;;;4978800;28;20050;-35
2023/04/16 03:59:59;;;;;;;5.75;2.03;;;17.10;1.00;;;;;;4978715;28;20042;-35
2023/04/16 04:02:28;;;;;;;5.15;1.40;;;17.10;1.00;;;;;;4995888;28;20416;-35
2023/04/16 04:04:55;;;;;;;4.10;1.23;;;17.10;1.00;;;;;;4977860;28;20426;-35
2023/04/16 04:07:22;;;;;;;3.55;1.25;;;17.00;1.00;;;;;;4978464;28;20054;-35
2023/04/16 04:09:50;;;;;;;3.30;1.73;;;17.00;1.00;;;;;;4978493;28;20046;-35
2023/04/16 04:12:17;;;;;;;4.90;1.77;;;17.00;1.00;;;;;;4978158;28;20081;-36
2023/04/16 04:14:45;;;;;;;3.88;1.40;;;17.00;1.00;;;;;;4977874;28;20050;-35
2023/04/16 04:17:12;;;;;;;3.50;1.20;;;17.00;1.00;;;;;;4978317;28;20046;-35
2023/04/16 04:19:38;;;;;;;3.53;1.40;;;17.00;1.00;;;;;;4995916;28;20042;-35
2023/04/16 04:22:16;;;;;;;7.07;2.03;;;17.00;1.00;;;;;;4977944;28;20145;-35
2023/04/16 04:24:43;;;;;;;3.13;1.50;;;17.00;1.00;;;;;;4995262;28;20133;-36
2023/04/16 04:27:10;;;;;;;3.55;1.75;;;17.00;1.00;;;;;;4978219;28;20050;-35
2023/04/16 04:29:37;;;;;;;8.23;1.70;;;17.00;1.00;;;;;;4978098;28;20054;-35
2023/04/16 04:32:05;;;;;;;3.72;1.27;;;17.00;1.00;;;;;;4977974;28;20097;-35
2023/04/16 04:34:33;;;;;;;6.13;1.67;;;17.00;1.00;;;;;;4977078;28;20089;-35
2023/04/16 04:37:00;;;;;;;4.13;1.45;;;17.00;1.00;;;;;;4978069;28;20425;-35
2023/04/16 04:39:27;;;;;;;5.03;1.98;;;17.00;1.00;;;;;;4962222;28;20081;-36
2023/04/16 04:41:54;;;;;;;5.28;1.88;;;17.00;1.00;;;;;;4977804;28;20406;-35
2023/04/16 04:44:21;;;;;;;4.57;2.08;;;16.90;1.00;;;;;;4995007;28;20073;-36
2023/04/16 04:46:48;;;;;;;5.45;1.65;;;16.90;1.00;;;;;;4995545;28;20461;-35
2023/04/16 04:49:14;;;;;;;3.60;1.92;;;16.90;1.00;;;;;;4977690;28;20522;-36
2023/04/16 04:51:41;;;;;;;4.00;1.40;;;16.90;1.00;;;;;;4977708;28;20100;-36
2023/04/16 04:54:08;;;;;;;3.88;1.80;;;16.90;1.00;;;;;;4994455;28;20113;-36
2023/04/16 04:56:35;;;;;;;3.92;1.73;;;16.90;1.00;;;;;;4977236;28;20442;-35
2023/04/16 04:59:02;;;;;;;4.95;1.88;;;16.90;1.00;;;;;;4994982;28;20085;-36
2023/04/16 05:01:28;;;;;;;4.07;2.25;;;16.90;1.00;;;;;;4977634;28;20638;-35
2023/04/16 05:03:55;;;;;;;4.13;1.83;;;16.90;1.00;;;;;;4994207;28;20129;-36
2023/04/16 05:06:22;;;;;;;7.30;1.60;;;16.90;1.00;;;;;;4994975;28;20133;-35
2023/04/16 05:08:49;;;;;;;3.30;1.75;;;16.90;1.00;;;;;;4995015;28;20042;-35
2023/04/16 05:11:15;;;;;;;6.15;1.92;;;16.90;1.00;;;;;;4994618;28;20129;-35
2023/04/16 05:13:42;;;;;;;4.10;1.85;;;16.90;1.00;;;;;;4976439;28;20455;-36
2023/04/16 05:16:09;;;;;;;2.47;1.52;;;16.90;1.00;;;;;;4994789;28;20081;-35
2023/04/16 05:18:36;;;;;;;3.28;1.83;;;16.90;1.00;;;;;;4994837;28;20130;-36
2023/04/16 05:21:03;;;;;;;4.55;1.80;;;16.90;1.00;;;;;;4994757;28;20046;-36
2023/04/16 05:23:29;;;;;;;6.30;2.10;;;16.80;1.00;;;;;;4993923;28;20042;-36
2023/04/16 05:25:56;;;;;;;6.18;2.33;;;16.90;1.00;;;;;;4994587;28;20043;-35
2023/04/16 05:28:23;;;;;;;5.50;1.80;;;16.80;1.00;;;;;;4994998;28;20652;-35
2023/04/16 05:30:50;;;;;;;8.32;2.15;;;16.80;1.00;;;;;;4994578;28;20042;-36
2023/04/16 05:33:17;;;;;;;6.90;1.80;;;16.80;1.00;;;;;;4993612;28;20529;-35
2023/04/16 05:35:43;;;;;;;4.63;1.75;;;16.80;1.00;;;;;;4994225;28;20046;-35
2023/04/16 05:38:10;;;;;;;3.22;1.75;;;16.80;1.00;;;;;;4994345;28;20550;-35
2023/04/16 05:40:37;;;;;;;3.55;1.27;;;16.80;1.00;;;;;;4994131;28;20054;-35
2023/04/16 05:43:03;;;;;;;4.82;1.63;;;16.80;1.00;;;;;;4993488;28;20046;-35
2023/04/16 05:45:32;;;;;;;2.63;1.25;;;16.80;1.00;;;;;;4994208;28;20050;-35
2023/04/16 05:47:59;;;;;;;3.97;1.40;;;16.80;1.00;;;;;;4994145;28;20050;-35
2023/04/16 05:50:25;;;;;;;4.40;1.50;;;16.80;1.00;;;;;;4994029;28;20039;-35
2023/04/16 05:52:52;;;;;;;6.07;1.90;;;16.80;1.00;;;;;;4975987;28;20049;-35
2023/04/16 05:55:19;;;;;;;6.13;2.22;;;16.80;1.00;;;;;;4993883;28;20039;-35
2023/04/16 05:57:46;;;;;;;4.15;1.48;;;16.80;1.00;;;;;;4987969;28;20046;-35
2023/04/16 06:00:13;;;;;;;5.90;1.92;;;16.80;1.00;;;;;;4979220;28;20050;-35
2023/04/16 06:02:40;;;;;;;5.65;2.20;;;16.80;1.00;;;;;;4980001;28;20046;-36
2023/04/16 06:05:07;;;;;;;4.60;1.65;;;16.70;1.00;;;;;;4959892;28;20051;-36
2023/04/16 06:07:34;;;;;;;4.63;2.17;;;16.80;1.00;;;;;;4979927;28;20047;-35
2023/04/16 06:10:01;;;;;;;5.38;1.50;;;16.70;1.00;;;;;;4971058;28;20070;-35
2023/04/16 06:12:28;;;;;;;4.15;1.88;;;16.70;1.00;;;;;;4970190;28;20050;-35
2023/04/16 06:14:55;;;;;;;6.00;2.10;;;16.70;1.00;;;;;;4977777;28;20049;-35
2023/04/16 06:17:22;;;;;;;3.53;1.50;;;16.70;1.00;;;;;;4993515;28;20034;-35
2023/04/16 06:19:48;;;;;;;4.88;1.90;;;16.70;1.00;;;;;;4993578;28;20103;-35
2023/04/16 06:22:15;;;;;;;4.15;1.98;;;16.70;1.00;;;;;;4993298;28;20105;-35
2023/04/16 06:24:42;;;;;;;2.70;1.45;;;16.70;1.00;;;;;;4993449;28;20081;-35
2023/04/16 06:27:09;;;;;;;5.53;2.25;;;16.70;1.00;;;;;;4993476;28;20064;-35
2023/04/16 06:29:36;;;;;;;5.13;1.70;;;16.70;1.00;;;;;;4993372;28;20410;-35
2023/04/16 06:32:07;;;;;;;7.85;2.00;;;16.70;1.00;;;;;;4993397;28;20557;-35
2023/04/16 06:34:35;;;;;;;5.03;1.70;;;16.70;1.00;;;;;;4992565;28;20418;-35
2023/04/16 06:37:01;;;;;;;6.25;1.80;;;16.70;1.00;;;;;;4990807;28;20459;-35
2023/04/16 06:39:28;;;;;;;6.10;1.70;;;16.70;1.00;;;;;;4986872;28;20101;-35
2023/04/16 06:41:55;;;;;;;6.20;2.25;;;16.70;1.00;;;;;;4985677;28;20046;-36
2023/04/16 06:44:22;;;;;;;9.27;1.85;;;16.60;1.00;;;;;;4972935;28;20047;-35
2023/04/16 06:46:49;;;;;;;3.70;1.60;;;16.60;1.00;;;;;;4975093;28;20057;-36
2023/04/16 06:49:16;;;;;;;7.57;2.88;;;16.60;1.00;;;;;;4992218;28;20038;-36
2023/04/16 06:51:43;;;;;;;3.35;1.83;;;16.60;1.00;;;;;;4990342;28;20045;-36
2023/04/16 06:54:10;;;;;;;4.38;1.73;;;16.60;1.00;;;;;;4986649;28;20073;-36
2023/04/16 06:56:36;;;;;;;4.25;2.30;;;16.60;1.00;;;;;;4989622;28;20525;-36
2023/04/16 06:59:03;;;;;;;4.25;2.45;;;16.60;1.00;;;;;;4987677;28;20048;-36
2023/04/16 07:01:30;;;;;;;6.30;2.35;;;16.60;1.00;;;;;;4985304;28;20069;-36
2023/04/16 07:03:57;;;;;;;4.32;1.98;;;16.50;1.00;;;;;;4999417;28;20128;-36
2023/04/16 07:06:25;;;;;;;6.15;2.00;;;16.60;1.00;;;;;;4992661;28;20096;-36
2023/04/16 07:08:52;;;;;;;5.88;2.05;;;16.60;1.00;;;;;;4992783;28;20109;-36
2023/04/16 07:11:19;;;;;;;6.82;1.90;;;16.60;1.00;;;;;;4990696;28;20057;-36
2023/04/16 07:13:46;;;;;;;8.35;2.08;;;16.50;1.00;;;;;;4989445;28;20045;-36
2023/04/16 07:16:13;;;;;;;17.02;2.40;;;16.60;1.00;;;;;;4990111;28;20133;-35
2023/04/16 07:18:40;;;;;;;4.60;1.98;;;16.60;1.00;;;;;;4989626;28;20044;-35
2023/04/16 07:21:06;;;;;;;9.07;3.22;;;16.50;1.00;;;;;;4990570;28;20054;-35
2023/04/16 07:23:33;;;;;;;5.40;1.42;;;16.60;1.00;;;;;;4995241;28;20038;-35
2023/04/16 07:26:00;;;;;;;5.78;2.65;;;16.60;1.00;;;;;;4991680;28;20042;-35
2023/04/16 07:28:27;;;;;;;4.40;2.13;;;16.60;1.00;;;;;;4991793;28;20100;-35
2023/04/16 07:30:54;;;;;;;6.90;2.35;;;16.60;1.00;;;;;;4978397;28;20042;-36
2023/04/16 07:33:20;;;;;;;12.02;2.10;;;16.60;1.00;;;;;;4991137;28;20043;-35
2023/04/16 07:35:47;;;;;;;7.82;2.63;;;16.60;1.00;;;;;;4991708;28;20439;-35
2023/04/16 07:38:15;;;;;;;8.35;2.13;;;16.60;1.00;;;;;;4991285;28;20399;-35
2023/04/16 07:40:41;;;;;;;2.97;1.58;;;16.50;1.00;;;;;;4990470;28;20046;-35
2023/04/16 07:43:09;;;;;;;4.20;1.50;;;16.60;1.00;;;;;;4989637;28;20053;-35
2023/04/16 07:45:36;;;;;;;9.63;2.17;;;16.60;1.00;;;;;;4990561;28;20068;-35
2023/04/16 07:48:03;;;;;;;7.10;1.80;;;16.50;1.00;;;;;;4990350;28;20065;-35
2023/04/16 07:50:29;;;;;;;9.52;2.80;;;16.60;1.00;;;;;;4990191;28;20131;-35
2023/04/16 07:52:59;;;;;;;7.65;1.75;;;16.60;1.00;;;;;;4989800;28;20046;-36
2023/04/16 07:55:26;;;;;;;5.40;2.22;;;16.60;1.00;;;;;;4989602;28;20113;-35
2023/04/16 07:57:54;;;;;;;6.53;1.83;;;16.50;1.00;;;;;;4991045;28;20053;-35
2023/04/16 08:00:20;;;;;;;5.90;2.25;;;16.60;1.00;;;;;;4991131;28;20073;-35
2023/04/16 08:02:47;;;;;;;10.20;2.22;;;16.60;1.00;;;;;;4989646;28;20542;-35
2023/04/16 08:05:14;;;;;;;4.53;1.70;;;16.60;1.00;;;;;;4988789;28;20039;-35
2023/04/16 08:07:41;;;;;;;11.13;2.38;;;16.60;1.00;;;;;;4990431;28;20093;-35
2023/04/16 08:10:08;;;;;;;6.38;2.05;;;16.60;1.00;;;;;;4990038;28;20046;-35
2023/04/16 08:12:35;;;;;;;4.88;2.33;;;16.60;1.00;;;;;;4986252;28;20466;-35
2023/04/16 08:15:02;;;;;;;4.63;2.00;;;16.60;1.00;;;;;;4991620;28;20062;-35
2023/04/16 08:17:29;;;;;;;7.55;2.35;;;16.60;1.00;;;;;;4983437;28;20046;-34
2023/04/16 08:19:56;;;;;;;6.10;2.40;;;16.60;1.00;;;;;;4994497;28;20042;-34
2023/04/16 08:22:23;;;;;;;5.82;2.25;;;16.50;1.00;;;;;;4991149;28;20521;-34
2023/04/16 08:24:50;;;;;;;13.75;2.15;;;16.60;1.00;;;;;;4991280;28;20054;-35
2023/04/16 08:27:17;;;;;;;6.28;1.88;;;16.60;1.00;;;;;;4992063;28;20057;-35
2023/04/16 08:29:46;;;;;;;11.98;1.95;;;16.60;1.00;;;;;;4992143;28;20042;-34
2023/04/16 08:32:13;;;;;;;3.17;1.52;;;16.60;1.00;;;;;;4994626;28;20421;-34
2023/04/16 08:34:41;;;;;;;8.05;2.42;;;16.50;1.00;;;;;;4994972;28;20039;-34
2023/04/16 08:37:08;;;;;;;4.50;2.05;;;16.60;1.00;;;;;;4995406;28;20049;-34
2023/04/16 08:39:35;;;;;;;7.10;2.03;;;16.50;1.00;;;;;;4995541;28;20042;-34
2023/04/16 08:42:04;;;;;;;6.80;2.15;;;16.60;1.00;;;;;;4995406;28;20050;-34
2023/04/16 08:44:36;;;;;;;6.03;2.00;;;16.60;1.00;;;;;;4994626;28;20089;-35
2023/04/16 08:47:05;;;;;;;3.17;1.75;;;16.60;1.00;;;;;;4995330;28;20125;-34
2023/04/16 08:49:41;;;;;;;4.05;1.75;;;16.60;1.00;;;;;;4993994;28;20125;-35
2023/04/16 08:52:13;;;;;;;4.63;2.22;;;16.60;1.00;;;;;;4992041;28;20038;-35
2023/04/16 08:55:03;;;;;;;10.17;3.27;;;16.50;1.00;;;;;;4985128;28;20519;-35
2023/04/16 08:57:39;;;;;;;8.57;2.65;;;16.50;1.00;;;;;;4987714;28;20034;-35
2023/04/16 09:00:08;;;;;;;5.65;2.47;;;16.70;1.00;;;;;;4986947;28;20070;-35
2023/04/16 09:02:35;;;;;;;9.43;2.67;;;16.80;1.00;;;;;;4994758;28;20529;-35
2023/04/16 09:05:05;;;;;;;6.93;2.33;;;16.80;1.00;;;;;;4993198;28;20042;-35
2023/04/16 09:07:33;;;;;;;9.98;2.10;;;16.90;1.00;;;;;;4990459;28;20134;-35
2023/04/16 09:10:00;;;;;;;8.02;2.63;;;16.90;1.00;;;;;;4983365;28;20081;-35
2023/04/16 09:12:30;;;;;;;5.93;2.40;;;17.00;1.00;;;;;;4992385;28;20039;-35
2023/04/16 09:14:59;;;;;;;3.45;2.05;;;17.00;1.00;;;;;;4993546;28;20406;-34
2023/04/16 09:17:27;;;;;;;7.28;2.55;;;17.10;1.00;;;;;;4990474;28;20042;-35
2023/04/16 09:19:55;;;;;;;5.60;2.83;;;17.10;1.00;;;;;;4995118;28;20551;-35
2023/04/16 09:22:22;;;;;;;6.10;2.30;;;17.20;1.00;;;;;;4991766;28;20049;-36
2023/04/16 09:24:48;;;;;;;5.20;2.35;;;17.30;1.00;;;;;;5002467;28;20046;-35
2023/04/16 09:27:16;;;;;;;7.20;2.10;;;17.30;1.00;;;;;;4992514;28;20058;-35
2023/04/16 09:29:43;;;;;;;7.63;2.90;;;17.30;1.00;;;;;;4997696;28;20051;-36
2023/04/16 09:32:10;;;;;;;6.13;2.15;;;17.40;1.00;;;;;;4989225;28;20038;-35
2023/04/16 09:34:56;;;;;;;3.97;2.30;;;17.40;1.00;;;;;;4995779;28;20039;-35
2023/04/16 09:37:24;;;;;;;5.40;2.40;;;17.40;1.00;;;;;;4996022;28;20099;-35
2023/04/16 09:39:58;;;;;;;5.22;2.45;;;17.40;1.00;;;;;;4997246;28;20042;-35
2023/04/16 09:42:33;;;;;;;4.60;1.88;;;17.50;1.00;;;;;;4988308;28;20559;-35
2023/04/16 09:45:00;;;;;;;4.00;1.90;;;17.50;1.00;;;;;;4988986;28;20514;-35
2023/04/16 09:47:42;;;;;;;7.47;2.22;;;17.50;1.00;;;;;;4986988;28;20140;-35
2023/04/16 09:50:13;;;;;;;6.40;2.08;;;17.50;1.00;;;;;;4994109;28;20054;-35
2023/04/16 09:52:46;;;;;;;6.13;2.00;;;17.60;1.00;;;;;;4993223;28;20163;-35
2023/04/16 09:55:13;;;;;;;7.28;2.35;;;17.60;1.00;;;;;;4992448;28;20081;-35
2023/04/16 09:57:40;;;;;;;6.90;3.03;;;17.60;1.00;;;;;;4993624;28;20046;-36
2023/04/16 10:00:08;;;;;;;3.72;2.30;;;17.70;1.00;;;;;;4998705;28;20048;-36
2023/04/16 10:02:40;;;;;;;6.65;2.30;;;17.70;1.00;;;;;;4975505;28;20042;-36
2023/04/16 10:05:08;;;;;;;3.90;1.92;;;17.70;1.00;;;;;;4994818;28;20085;-36
2023/04/16 10:07:36;;;;;;;5.90;2.33;;;17.80;1.00;;;;;;4991257;28;20117;-36
2023/04/16 10:10:04;;;;;;;8.52;2.05;;;17.80;1.00;;;;;;5003292;28;20092;-36
2023/04/16 10:12:34;;;;;;;7.43;2.67;;;17.80;1.00;;;;;;4975750;28;20061;-36
2023/04/16 10:15:01;;;;;;;6.10;2.42;;;17.80;1.00;;;;;;4995327;28;20121;-36
2023/04/16 10:17:29;;;;;;;5.18;1.98;;;17.90;1.00;;;;;;4993468;28;20034;-36
2023/04/16 10:19:57;;;;;;;5.75;2.92;;;17.90;1.00;;;;;;4993343;28;20100;-36
2023/04/16 10:22:25;;;;;;;11.05;3.28;;;17.90;1.00;;;;;;4992934;28;20057;-35
2023/04/16 10:24:52;;;;;;;5.35;2.53;;;17.90;1.00;;;;;;4989762;28;20417;-35
2023/04/16 10:27:20;;;;;;;8.07;2.60;;;17.90;1.00;;;;;;4997700;28;20050;-35
2023/04/16 10:29:48;;;;;;;6.80;2.47;;;18.00;1.00;;;;;;4991405;28;20502;-35
2023/04/16 10:32:16;;;;;;;5.80;2.40;;;18.00;1.00;;;;;;4990059;28;20030;-35
2023/04/16 10:34:43;;;;;;;6.72;2.47;;;18.00;1.00;;;;;;4997342;28;20482;-35
2023/04/16 10:37:10;;;;;;;5.65;3.03;;;18.10;1.00;;;;;;4993687;28;20493;-35
2023/04/16 10:39:37;;;;;;;9.07;2.38;;;18.10;1.00;;;;;;4992603;28;20051;-35
2023/04/16 10:42:11;;;;;;;7.93;2.35;;;18.10;1.00;;;;;;4996735;28;20041;-36
2023/04/16 10:44:52;;;;;;;6.10;1.95;;;18.20;1.00;;;;;;4993565;28;20057;-35
2023/04/16 10:47:27;;;;;;;4.13;2.22;;;18.20;1.00;;;;;;4993006;28;20422;-35
2023/04/16 10:49:54;;;;;;;5.50;2.38;;;18.20;1.00;;;;;;4992413;28;20038;-35
2023/04/16 10:52:23;;;;;;;5.30;2.53;;;18.20;1.00;;;;;;4993068;28;20034;-36
2023/04/16 10:54:52;;;;;;;5.88;2.50;;;18.20;1.00;;;;;;4988274;28;20466;-35
2023/04/16 10:57:19;;;;;;;8.25;3.03;;;18.30;1.00;;;;;;4995404;28;20097;-35
2023/04/16 10:59:48;;;;;;;6.65;2.25;;;18.30;1.00;;;;;;4988173;28;20038;-35
2023/04/16 11:02:16;;;;;;;4.85;2.28;;;18.30;1.00;;;;;;4990994;28;20054;-36
2023/04/16 11:04:45;;;;;;;5.53;1.90;;;18.30;1.00;;;;;;4988986;28;20046;-36
2023/04/16 11:07:18;;;;;;;6.65;2.70;;;18.40;1.00;;;;;;4992914;28;20096;-35
2023/04/16 11:09:59;;;;;;;6.50;2.25;;;18.40;1.00;;;;;;4992703;28;20057;-37
2023/04/16 11:12:38;;;;;;;8.15;1.77;;;18.50;1.00;;;;;;4992309;28;20447;-36
2023/04/16 11:15:05;;;;;;;7.10;2.22;;;18.50;1.00;;;;;;4992634;28;20078;-36
2023/04/16 11:17:39;;;;;;;3.58;1.88;;;18.50;1.00;;;;;;4992658;28;20129;-36
2023/04/16 11:20:15;;;;;;;6.57;2.88;;;18.50;1.00;;;;;;4992479;28;20066;-36
2023/04/16 11:22:50;;;;;;;9.38;2.92;;;18.50;1.00;;;;;;4994697;28;20421;-36
2023/04/16 11:25:25;;;;;;;5.20;2.80;;;18.50;1.00;;;;;;4990958;28;20073;-36
2023/04/16 11:27:52;;;;;;;7.80;2.72;;;18.50;1.00;;;;;;4989498;28;20057;-36
2023/04/16 11:30:28;;;;;;;6.43;2.33;;;18.60;1.00;;;;;;4980091;28;20076;-36
2023/04/16 11:32:55;;;;;;;6.38;2.28;;;18.60;1.00;;;;;;4989473;28;20054;-36
2023/04/16 11:35:22;;;;;;;6.57;2.35;;;18.60;1.00;;;;;;4991688;28;20038;-36
2023/04/16 11:37:54;;;;;;;7.45;2.42;;;18.60;1.00;;;;;;4992340;28;20038;-36
2023/04/16 11:40:20;;;;;;;6.47;2.70;;;18.60;1.00;;;;;;4992282;28;20050;-36
2023/04/16 11:42:47;;;;;;;10.23;2.33;;;18.60;1.00;;;;;;4991446;28;20146;-36
2023/04/16 11:45:14;;;;;;;5.97;2.40;;;18.70;1.00;;;;;;4992023;28;20065;-36
2023/04/16 11:47:51;;;;;;;6.43;2.88;;;18.70;1.00;;;;;;4992430;28;20142;-36
2023/04/16 11:50:22;;;;;;;5.53;2.42;;;18.70;1.00;;;;;;4992381;28;20125;-36
2023/04/16 11:52:51;;;;;;;5.45;2.15;;;18.70;1.00;;;;;;4991495;28;20073;-36
2023/04/16 11:55:19;;;;;;;8.45;2.92;;;18.70;1.00;;;;;;4992223;28;20050;-36
2023/04/16 11:57:46;;;;;;;5.13;2.38;;;18.80;1.00;;;;;;4991696;28;20042;-36
2023/04/16 12:00:13;;;;;;;5.07;2.03;;;18.80;1.00;;;;;;4992220;28;20046;-36
2023/04/16 12:02:42;;;;;;;10.73;2.33;;;18.80;1.00;;;;;;4991487;28;20042;-36
2023/04/16 12:05:29;;;;;;;6.03;2.22;;;18.90;1.00;;;;;;4990708;28;20053;-36
2023/04/16 12:08:06;;;;;;;9.13;2.75;;;18.90;1.00;;;;;;4992505;28;20057;-36
2023/04/16 12:10:35;;;;;;;3.13;1.90;;;18.90;1.00;;;;;;4993571;28;20129;-36
2023/04/16 12:13:13;;;;;;;6.45;2.75;;;18.90;1.00;;;;;;4989299;28;20565;-36
2023/04/16 12:15:51;;;;;;;6.60;2.28;;;18.90;1.00;;;;;;4992724;28;20043;-36
2023/04/16 12:18:24;;;;;;;6.13;2.58;;;18.90;1.00;;;;;;5001209;28;20084;-36
2023/04/16 12:20:51;;;;;;;11.15;2.92;;;19.00;1.00;;;;;;4978046;28;20046;-36
2023/04/16 12:23:29;;;;;;;9.50;2.58;;;19.00;1.00;;;;;;5010197;22;20093;-36
2023/04/16 12:26:01;;;;;;;7.60;2.65;;;19.00;1.00;;;;;;5032567;28;20434;-35
2023/04/16 12:28:35;;;;;;;4.73;1.80;;;19.00;1.00;;;;;;5009908;28;20065;-35
2023/04/16 12:31:03;;;;;;;5.30;2.42;;;19.00;1.00;;;;;;5022197;28;20642;-35
2023/04/16 12:33:30;;;;;;;6.85;2.65;;;19.00;1.00;;;;;;5029866;28;20044;-35
2023/04/16 12:35:57;;;;;;;7.65;2.38;;;19.00;1.00;;;;;;5015065;28;20080;-35
2023/04/16 12:38:25;;;;;;;6.63;3.30;;;18.90;1.00;;;;;;5015175;28;20042;-35
2023/04/16 12:40:55;;;;;;;4.85;2.97;;;18.90;1.00;;;;;;5014936;28;20124;-35
2023/04/16 12:43:23;;;;;;;7.28;3.17;;;18.90;1.00;;;;;;5014366;28;20050;-35
2023/04/16 12:45:50;;;;;;;6.25;2.72;;;18.90;1.00;;;;;;5014624;28;20471;-35
2023/04/16 12:48:17;;;;;;;7.57;2.55;;;18.90;1.00;;;;;;5014872;28;20100;-35
2023/04/16 12:50:43;;;;;;;6.43;2.42;;;18.90;1.00;;;;;;5014824;28;20065;-35
2023/04/16 12:53:10;;;;;;;7.13;3.03;;;18.80;1.00;;;;;;5013919;28;20042;-35
2023/04/16 12:55:37;;;;;;;10.63;2.97;;;18.80;1.00;;;;;;5014814;28;20497;-35
2023/04/16 12:58:04;;;;;;;5.65;2.35;;;18.80;1.00;;;;;;5014828;28;20042;-35
2023/04/16 13:00:31;;;;;;;5.47;2.63;;;18.80;1.00;;;;;;5014333;28;20485;-35
2023/04/16 13:02:58;;;;;;;14.60;4.60;;;18.80;1.00;;;;;;5013766;28;20049;-35